Latest Weather Observations for Giles*

IDW60801

Issued at 1:05 pm WST Tuesday 21 October 2014 (issued every 30 minutes, with the page automatically refreshed every 10 minutes)

About weather observations | Map of weather stations | Latest weather observations for WA | Other Formats
Station Details ID: 013017 Name: GILES METEOROLOGICAL OFFICE Lat: -25.03 Lon: 128.30 Height: 598.0 m
Data from the previous 72 hours. | See also: Recent months at Giles*

* Giles observations are collected in the South Australia time zone, which includes daylight saving in the summer period. Therefore, Rain since 9am value is with respect to South Australia local time.

Date/Time
WST
Temp
°C
App
Temp
°C
Dew
Point
Rel
Hum
%
Delta-T
°C
Wind Press
QNH
hPa
Press
MSL
hPa
Rain
since 9 am
mm
Dir
 
Spd
km/h
Gust
km/h
Spd
kts
Gust
kts
21/01:00pm 36.4 31.1 -3.5 8 19.3 NNW 15 26 8 14 1016.7 - 0.0
21/12:30pm 36.9 31.1 -4.6 7 19.8 NW 17 26 9 14 1017.1 1013.8 0.0
21/12:00pm 36.4 32.3 -3.0 8 19.2 NW 9 19 5 10 1017.6 - 0.0
21/11:30am 35.7 32.2 -1.1 9 18.4 NNE 7 11 4 6 1018.1 - 0.0
21/11:00am 35.8 32.5 0.1 10 18.2 E 7 15 4 8 1018.5 - 0.0
21/10:30am 34.3 29.7 1.7 13 16.9 ESE 15 26 8 14 1018.9 - 0.0
21/10:00am 34.4 30.1 1.1 12 17.1 ESE 13 22 7 12 1019.3 - 0.0
21/09:30am 33.5 28.1 1.3 13 16.5 SE 19 26 10 14 1019.5 1016.1 0.0
21/09:00am 32.4 26.9 1.8 14 15.7 SE 20 30 11 16 1019.7 - 0.0
21/08:30am 30.9 25.5 2.5 16 14.6 SSE 20 30 11 16 1019.8 - 0.0
21/08:00am 29.8 24.7 3.1 18 13.8 SSE 19 26 10 14 1019.6 - 0.0
21/07:30am 28.7 24.1 3.6 20 13.0 SSE 17 20 9 11 1019.5 - 0.0
21/07:00am 27.1 22.1 3.7 22 12.0 SSE 19 24 10 13 1019.3 - 0.0
21/06:30am 25.3 21.4 3.6 24 11.0 S 13 17 7 9 1019.2 1015.8 0.0
21/06:00am 23.9 20.5 3.9 27 10.1 SE 11 15 6 8 1018.9 - 0.0
21/05:30am 22.8 19.8 4.1 29 9.4 SE 9 11 5 6 1018.6 - 0.0
21/05:00am 23.0 19.1 3.6 28 9.7 ESE 13 17 7 9 1018.3 - 0.0
21/04:30am 22.7 18.9 3.7 29 9.5 SE 13 17 7 9 1017.6 - 0.0
21/04:00am 22.3 19.7 4.2 30 9.1 SE 7 9 4 5 1017.1 - 0.0
21/03:30am 23.1 21.4 4.1 29 9.6 S 2 6 1 3 1016.8 1013.4 0.0
21/03:00am 24.7 20.7 2.8 24 10.9 E 13 17 7 9 1016.1 - 0.0
21/02:30am 24.6 20.6 2.6 24 10.9 E 13 15 7 8 1015.9 - 0.0
21/02:00am 23.1 20.2 1.5 24 10.4 ESE 6 9 3 5 1016.0 - 0.0
21/01:30am 25.2 22.2 1.7 21 11.5 E 7 9 4 5 1016.0 - 0.0
21/01:00am 24.8 21.1 -0.2 19 11.8 E 9 11 5 6 1016.1 - 0.0
21/12:30am 25.3 21.5 -0.7 18 12.2 SW 9 11 5 6 1016.4 1013.0 0.0
21/12:00am 26.2 21.6 -3.8 13 13.4 SW 11 15 6 8 1016.7 - 0.0
 
Date/Time
WST
Temp
°C
App
Temp
°C
Dew
Point
Rel
Hum
%
Delta-T
°C
Wind Press
QNH
hPa
Press
MSL
hPa
Rain
since 9 am
mm
Dir
 
Spd
km/h
Gust
km/h
Spd
kts
Gust
kts
20/11:30pm 27.5 23.6 -1.4 15 13.6 SW 9 11 5 6 1016.7 - 0.0
20/11:00pm 27.7 23.8 -1.8 14 13.8 SW 9 11 5 6 1016.8 - 0.0
20/10:30pm 29.3 26.7 -5.2 10 15.4 CALM 0 9 0 5 1017.1 - 0.0
20/10:00pm 28.5 25.8 -2.4 13 14.4 S 2 7 1 4 1017.2 - 0.0
20/09:30pm 29.1 25.4 -4.7 11 15.2 SW 6 11 3 6 1017.4 1014.0 0.0
20/09:00pm 29.2 25.0 -3.9 11 15.1 W 9 11 5 6 1017.5 - 0.0
20/08:30pm 30.5 25.2 -7.1 8 16.4 N 13 15 7 8 1017.2 - 0.0
20/08:00pm 30.8 25.9 -6.6 8 16.5 N 11 13 6 7 1017.0 - 0.0
20/07:30pm 30.7 26.4 -5.2 9 16.2 NNW 9 9 5 5 1016.7 - 0.0
20/07:00pm 30.9 26.4 -6.8 8 16.6 N 9 11 5 6 1016.2 - 0.0
20/06:30pm 31.2 26.7 -7.0 8 16.8 N 9 11 5 6 1015.8 1012.4 0.0
20/06:00pm 32.0 27.3 -9.3 6 17.6 NNW 9 11 5 6 1015.3 - 0.0
20/05:30pm 34.0 27.9 -13.2 4 19.2 NNW 15 20 8 11 1015.0 - 0.0
20/05:00pm 34.8 27.8 -15.7 3 19.9 NNW 19 26 10 14 1014.6 - 0.0
20/04:30pm 35.7 27.2 -19.5 2 20.7 NNW 26 37 14 20 1014.3 - 0.0
20/04:00pm 35.7 28.6 -18.0 2 20.6 NW 19 30 10 16 1014.1 - 0.0
20/03:30pm 36.6 26.9 -20.7 2 21.3 NNW 32 50 17 27 1014.0 1010.6 0.0
20/03:27pm 36.5 27.2 -21.8 2 21.3 NNW 30 48 16 26 1013.9 - 0.0
20/03:00pm 36.8 28.0 -17.3 2 21.2 NNW 28 44 15 24 1014.1 - 0.0
20/02:30pm 37.2 28.3 -19.8 2 21.6 NNW 28 46 15 25 1014.1 - 0.0
20/02:11pm 36.9 28.0 -21.2 2 21.5 NW 28 50 15 27 1014.2 - 0.0
20/02:00pm 37.7 30.2 -14.3 3 21.5 NNW 22 32 12 17 1014.3 - 0.0
20/01:30pm 36.7 29.1 -15.5 3 21.0 NNW 22 39 12 21 1014.7 - 0.0
20/01:11pm 37.1 28.4 -15.0 3 21.2 N 28 46 15 25 1014.7 - 0.0
20/01:00pm 36.3 26.9 -14.8 3 20.7 NNW 32 44 17 24 1015.0 - 0.0
20/12:34pm 36.3 26.8 -16.0 3 20.8 NNW 32 52 17 28 1015.3 - 0.0
20/12:30pm 36.4 27.0 -14.1 3 20.7 NNW 32 43 17 23 1015.5 1012.2 0.0
20/12:00pm 36.1 27.2 -19.2 2 20.9 N 28 50 15 27 1016.3 - 0.0
20/11:30am 36.0 27.0 -13.6 4 20.4 N 30 44 16 24 1016.8 - 0.0
20/11:00am 34.9 26.0 -12.1 4 19.6 NNW 30 44 16 24 1017.2 - 0.0
20/10:41am 34.3 25.7 -12.6 4 19.3 NNW 28 46 15 25 1017.7 - 0.0
20/10:30am 34.7 26.7 -15.5 3 19.8 N 24 35 13 19 1017.8 - 0.0
20/10:00am 34.2 24.7 -16.7 3 19.6 N 32 37 17 20 1018.3 - 0.0
20/09:30am 33.0 25.9 -14.3 4 18.7 N 20 24 11 13 1018.6 1015.3 0.0
20/09:00am 31.6 26.0 -11.4 5 17.6 NNW 13 19 7 10 1019.0 - 0.0
20/08:30am 30.2 26.4 -5.8 9 16.0 NW 6 13 3 7 1019.2 - 0.0
20/08:00am 28.6 24.9 -3.2 12 14.6 S 7 11 4 6 1019.4 - 0.0
20/07:30am 27.4 23.8 0.4 17 13.1 SSE 9 15 5 8 1019.3 - 0.0
20/07:00am 26.2 22.0 -0.7 17 12.7 SSW 11 19 6 10 1019.2 - 0.0
20/06:30am 25.2 20.1 -2.3 16 12.5 SSW 15 24 8 13 1018.8 1015.5 0.0
20/06:00am 25.6 20.4 -17.4 5 14.9 SW 9 11 5 6 1018.3 - 0.0
20/05:46am 25.3 16.3 -22.5 3 15.1 WSW 28 43 15 23 1017.7 - 0.0
20/05:30am 27.2 20.9 -16.7 5 15.7 N 15 24 8 13 1017.0 - 0.0
20/05:00am 26.5 19.1 -21.8 3 15.7 N 20 24 11 13 1016.4 - 0.0
20/04:30am 26.9 19.7 -21.6 3 15.9 N 19 26 10 14 1016.2 - 0.0
20/04:00am 26.2 19.0 -21.1 3 15.5 N 19 24 10 13 1015.9 - 0.0
20/03:30am 26.4 18.9 -22.7 3 15.7 N 20 28 11 15 1015.5 1012.2 0.0
20/03:00am 26.4 18.9 -22.6 3 15.7 N 20 26 11 14 1015.3 - 0.0
20/02:30am 26.8 19.3 -24.3 2 16.0 N 20 28 11 15 1015.1 - 0.0
20/02:00am 27.5 19.6 -23.0 3 16.3 NNE 22 30 12 16 1015.2 - 0.0
20/01:30am 26.8 19.5 -24.4 2 16.0 N 19 24 10 13 1015.4 - 0.0
20/01:00am 27.3 19.9 -27.7 2 16.4 N 19 22 10 12 1015.4 - 0.0
20/12:30am 28.7 21.1 -29.3 1 17.2 NNE 20 26 11 14 1015.4 1012.1 0.0
20/12:00am 28.9 21.4 -32.7 1 17.4 NNE 19 28 10 15 1015.4 - 0.0
 
Date/Time
WST
Temp
°C
App
Temp
°C
Dew
Point
Rel
Hum
%
Delta-T
°C
Wind Press
QNH
hPa
Press
MSL
hPa
Rain
since 9 am
mm
Dir
 
Spd
km/h
Gust
km/h
Spd
kts
Gust
kts
19/11:30pm 29.1 21.6 -32.5 1 17.5 NNE 19 30 10 16 1015.7 - 0.0
19/11:00pm 30.1 22.1 -30.9 1 18.0 NNE 22 30 12 16 1015.9 - 0.0
19/10:30pm 30.0 21.6 -29.3 1 17.9 NNE 24 32 13 17 1016.1 - 0.0
19/10:00pm 30.3 21.5 -35.1 1 18.2 NNE 26 39 14 21 1016.3 - 0.0
19/09:30pm 30.6 22.1 -47.9 0 18.5 NNE 24 33 13 18 1016.2 1012.8 0.0
19/09:00pm 30.1 22.5 -31.0 1 18.0 NNE 20 26 11 14 1016.4 - 0.0
19/08:30pm 28.9 22.1 -20.5 3 16.9 NNE 17 20 9 11 1016.5 - 0.0
19/08:00pm 29.5 23.1 -18.5 3 17.1 NE 15 19 8 10 1016.3 - 0.0
19/07:30pm 30.1 23.2 -21.1 3 17.6 NNE 17 20 9 11 1016.0 - 0.0
19/07:00pm 30.1 23.6 -22.9 2 17.7 NNE 15 17 8 9 1015.7 - 0.0
19/06:30pm 30.9 23.8 -29.4 1 18.4 N 17 22 9 12 1015.5 1012.2 0.0
19/06:00pm 31.0 24.4 -27.6 1 18.4 N 15 17 8 9 1015.1 - 0.0
19/05:30pm 32.7 25.7 -29.2 1 19.4 N 17 24 9 13 1014.8 - 0.0
19/05:00pm 34.1 26.4 -40.2 0 20.4 N 20 28 11 15 1014.5 - 0.0
19/04:30pm 35.0 - - - - N 20 28 11 15 1014.2 - 0.0
19/04:00pm 35.5 - - - - N 24 32 13 17 1014.2 - 0.0
19/03:30pm 35.3 28.2 -29.6 1 20.9 NNE 17 26 9 14 1013.9 1010.4 0.0
19/03:00pm 34.9 29.5 -24.7 1 20.5 N 9 17 5 9 1014.0 - 0.0
19/02:30pm 35.3 28.9 -34.0 1 21.0 N 13 28 7 15 1014.1 - 0.0
19/02:00pm 35.9 27.5 -29.9 1 21.2 N 24 37 13 20 1014.3 - 0.0
19/01:30pm 36.0 28.0 -30.3 1 21.3 N 22 41 12 22 1014.8 - 0.0
19/01:00pm 35.4 26.9 -53.0 0 21.2 N 24 44 13 24 1015.0 - 0.0
19/12:30pm 35.0 27.3 -39.8 0 20.9 N 20 32 11 17 1015.4 1012.1 0.0
19/12:00pm 34.6 25.8 -31.0 1 20.5 NNW 26 37 14 20 1015.9 - 0.0
19/11:30am 34.6 - - - - N 24 43 13 23 1016.3 - 0.0
19/11:00am 33.9 - - - - N 24 37 13 20 1016.7 - 0.0
19/10:30am 33.9 - - - - NNE 30 41 16 22 1017.0 - 0.0
19/10:07am 33.1 23.5 -39.2 0 19.8 NNE 30 48 16 26 1017.4 - 0.0
19/10:00am 32.5 22.5 -42.7 0 19.5 N 32 48 17 26 1017.4 - 0.0
19/09:30am 32.3 22.8 -31.0 1 19.2 NNE 30 43 16 23 1017.8 1014.4 0.0
19/09:00am 31.6 21.9 -43.0 0 19.0 N 30 43 16 23 1017.9 - 0.0
19/08:30am 30.5 20.8 -43.5 0 18.4 N 30 39 16 21 1018.1 - 0.0
19/08:00am 30.4 21.2 -33.2 1 18.2 N 28 39 15 21 1018.1 - 0.0
19/07:30am 29.2 20.1 -27.8 2 17.4 NNE 28 37 15 20 1018.0 - 0.0
19/07:00am 28.6 19.4 -36.7 1 17.3 N 28 35 15 19 1017.7 - 0.0
19/06:30am 28.0 19.2 -32.6 1 16.9 NNE 26 43 14 23 1017.5 1014.1 0.0
19/06:00am 27.1 18.6 -36.1 1 16.5 NNE 24 33 13 18 1017.2 - 0.0
19/05:30am 25.0 19.0 -35.1 1 15.4 NE 11 24 6 13 1016.9 - 0.0
19/05:27am 21.1 16.0 -29.0 2 13.3 E 7 17 4 9 1016.9 - 0.0
19/05:00am 16.0 12.2 -16.4 9 10.1 ESE 2 6 1 3 1016.7 - 0.0
19/04:30am 15.8 11.6 -17.3 9 10.1 ESE 4 7 2 4 1016.6 - 0.0
19/04:00am 16.3 11.6 -18.1 8 10.4 ESE 6 11 3 6 1016.4 - 0.0
19/03:30am 15.3 12.0 -13.1 13 9.4 CALM 0 6 0 3 1016.1 1012.7 0.0
19/03:00am 16.1 11.9 -15.9 10 10.1 N 4 9 2 5 1016.0 - 0.0
19/02:30am 20.0 15.2 -16.5 7 12.0 N 7 9 4 5 1016.1 - 0.0
19/02:00am 21.3 16.4 -12.5 9 12.2 N 9 9 5 5 1016.2 - 0.0
19/01:30am 22.8 17.6 -17.7 5 13.5 N 9 11 5 6 1016.2 - 0.0
19/01:00am 21.4 17.1 -8.6 12 11.7 N 7 9 4 5 1016.5 - 0.0
19/12:30am 21.2 16.7 -14.6 8 12.4 N 6 7 3 4 1016.6 1013.2 0.0
19/12:00am 24.2 19.1 -15.4 6 14.0 N 9 13 5 7 1016.9 - 0.0
 
Date/Time
WST
Temp
°C
App
Temp
°C
Dew
Point
Rel
Hum
%
Delta-T
°C
Wind Press
QNH
hPa
Press
MSL
hPa
Rain
since 9 am
mm
Dir
 
Spd
km/h
Gust
km/h
Spd
kts
Gust
kts
18/11:30pm 24.2 18.5 -20.3 4 14.4 N 11 13 6 7 1017.1 - 0.0
18/11:00pm 24.6 18.5 -21.8 3 14.7 NNE 13 15 7 8 1017.4 - 0.0
18/10:30pm 25.1 19.1 -18.1 5 14.7 NNE 13 17 7 9 1017.6 - 0.0
18/10:00pm 25.9 19.6 -17.8 4 15.1 NNE 15 17 8 9 1017.6 - 0.0
18/09:30pm 25.6 19.2 -18.6 4 15.0 NNE 15 19 8 10 1017.6 1014.2 0.0
18/09:00pm 27.1 20.3 -18.7 4 15.8 NNE 17 19 9 10 1017.6 - 0.0
18/08:30pm 26.5 20.5 -17.6 4 15.4 NNE 13 15 7 8 1017.5 - 0.0
18/08:00pm 28.3 21.9 -19.4 3 16.5 NE 15 17 8 9 1017.2 - 0.0
18/07:30pm 28.1 22.1 -19.5 3 16.4 NE 13 17 7 9 1017.0 - 0.0
18/07:00pm 28.8 22.8 -19.8 3 16.8 NE 13 19 7 10 1016.9 - 0.0
18/06:30pm 28.9 22.9 -19.0 3 16.8 NE 13 17 7 9 1016.7 1013.3 0.0
18/06:00pm 29.4 23.5 -16.7 4 16.9 NE 13 17 7 9 1016.6 - 0.0
18/05:30pm 31.3 - - - - N 17 26 9 14 1016.3 - 0.0
18/05:00pm 32.3 - - - - N 19 28 10 15 1016.0 - 0.0
18/04:30pm 32.7 - - - - N 19 24 10 13 1015.7 - 0.0
18/04:00pm 33.5 - - - - NNE 17 22 9 12 1015.5 - 0.0
18/03:30pm 33.7 26.1 -30.3 1 20.0 NNE 20 37 11 20 1015.4 1012.1 0.0
18/03:00pm 33.7 26.7 -25.5 1 19.8 N 17 33 9 18 1015.7 - 0.0
18/02:30pm 33.4 25.4 -27.5 1 19.7 N 22 35 12 19 1015.7 - 0.0
18/02:00pm 33.4 25.8 -30.3 1 19.8 NNW 20 28 11 15 1015.9 - 0.0
18/01:30pm 33.4 25.1 -24.2 2 19.6 N 24 41 13 22 1016.2 - 0.0
18/01:00pm 33.0 26.3 -30.9 1 19.6 NNE 15 26 8 14 1016.7 - 0.0
18/12:30pm 32.7 25.2 -24.2 2 19.2 NNE 20 33 11 18 1017.0 1013.7 0.0
18/12:00pm 32.3 24.7 -44.3 0 19.4 NE 19 30 10 16 1017.6 - 0.0
18/11:30am 33.2 25.6 -44.7 0 19.9 NNE 19 37 10 20 1018.2 - 0.0
18/11:00am 32.0 23.5 -41.4 0 19.2 N 24 41 13 22 1018.6 - 0.0

Other Formats:

Comma delimited format used in spreadsheet applications
http://www.bom.gov.au/fwo/IDW60801/IDW60801.94461.axf

JavaScript Object Notation format (JSON) in row-major order
http://www.bom.gov.au/fwo/IDW60801/IDW60801.94461.json